createdAt,value
2023-04-02T00:00:38.295Z,88.62
2023-04-02T00:01:38.314Z,88.14
2023-04-02T00:02:38.287Z,87.52
2023-04-02T00:03:38.282Z,88.31
2023-04-02T00:04:38.212Z,87.38
2023-04-02T00:05:38.148Z,87.90
2023-04-02T00:06:38.117Z,89.34
2023-04-02T00:07:38.108Z,88.76
2023-04-02T00:08:38.060Z,87.90
2023-04-02T00:09:38.032Z,87.90
2023-04-02T00:10:38.037Z,87.90
2023-04-02T00:11:37.971Z,87.48
2023-04-02T00:12:37.942Z,87.59
2023-04-02T00:13:37.910Z,87.38
2023-04-02T00:14:37.906Z,87.69
2023-04-02T00:15:37.853Z,87.69
2023-04-02T00:16:37.834Z,87.59
2023-04-02T00:17:37.797Z,87.59
2023-04-02T00:18:37.761Z,88.31
2023-04-02T00:19:37.738Z,87.90
2023-04-02T00:20:37.703Z,86.66
2023-04-02T00:21:38.882Z,87.07
2023-04-02T00:22:37.644Z,87.79
2023-04-02T00:23:37.617Z,87.69
2023-04-02T00:24:37.585Z,87.59
2023-04-02T00:25:37.554Z,87.59
2023-04-02T00:26:37.526Z,87.38
2023-04-02T00:27:37.497Z,88.04
2023-04-02T00:28:37.465Z,87.90
2023-04-02T00:29:37.436Z,87.99
2023-04-02T00:30:37.423Z,88.62
2023-04-02T00:31:37.394Z,88.41
2023-04-02T00:32:37.395Z,89.07
2023-04-02T00:33:37.332Z,89.79
2023-04-02T00:34:37.286Z,90.61
2023-04-02T00:35:37.457Z,90.72
2023-04-02T00:36:37.225Z,91.28
2023-04-02T00:37:37.199Z,92.21
2023-04-02T00:38:37.165Z,92.00
2023-04-02T00:39:37.137Z,92.61
2023-04-02T00:40:37.104Z,92.93
2023-04-02T00:41:37.078Z,92.41
2023-04-02T00:42:37.047Z,92.93
2023-04-02T00:43:37.019Z,92.00
2023-04-02T00:44:36.987Z,92.31
2023-04-02T00:45:37.314Z,92.10
2023-04-02T00:46:36.944Z,91.17
2023-04-02T00:47:36.928Z,92.82
2023-04-02T00:48:36.868Z,92.00
2023-04-02T00:49:36.853Z,92.31
2023-04-02T00:50:36.807Z,92.31
2023-04-02T00:51:36.784Z,91.89
2023-04-02T00:52:36.753Z,92.93
2023-04-02T00:53:36.719Z,92.72
2023-04-02T00:54:36.686Z,92.51
2023-04-02T00:55:36.935Z,92.10
2023-04-02T00:56:36.633Z,93.24
2023-04-02T00:57:36.604Z,92.72
2023-04-02T00:58:36.569Z,92.72
2023-04-02T00:59:36.539Z,93.38
2023-04-02T01:00:36.511Z,92.41
2023-04-02T01:01:36.604Z,92.72
2023-04-02T01:02:36.585Z,93.69
2023-04-02T01:03:37.034Z,92.04
2023-04-02T01:04:36.401Z,92.31
2023-04-02T01:05:36.845Z,92.86
2023-04-02T01:06:36.337Z,92.35
2023-04-02T01:07:36.298Z,93.69
2023-04-02T01:08:36.283Z,93.69
2023-04-02T01:09:36.238Z,94.42
2023-04-02T01:10:36.207Z,94.67
2023-04-02T01:11:36.178Z,94.77
2023-04-02T01:12:36.151Z,94.77
2023-04-02T01:13:36.144Z,94.46
2023-04-02T01:14:36.084Z,93.38
2023-04-02T01:15:36.353Z,93.18
2023-04-02T01:16:36.032Z,93.07
2023-04-02T01:17:36.029Z,93.28
2023-04-02T01:18:36.047Z,93.28
2023-04-02T01:19:35.953Z,93.59
2023-04-02T01:20:35.906Z,92.86
2023-04-02T01:21:35.878Z,92.35
2023-04-02T01:22:35.846Z,92.14
2023-04-02T01:23:35.824Z,92.00
2023-04-02T01:24:35.788Z,92.76
2023-04-02T01:25:35.966Z,92.41
2023-04-02T01:26:35.733Z,92.97
2023-04-02T01:27:35.702Z,92.14
2023-04-02T01:28:35.666Z,92.25
2023-04-02T01:29:35.636Z,92.41
2023-04-02T01:30:35.620Z,92.35
2023-04-02T01:31:35.620Z,91.58
2023-04-02T01:32:35.623Z,91.79
2023-04-02T01:33:35.524Z,92.41
2023-04-02T01:34:35.516Z,92.72
2023-04-02T01:35:35.653Z,92.72
2023-04-02T01:36:35.428Z,93.13
2023-04-02T01:37:35.398Z,92.35
2023-04-02T01:38:35.366Z,92.51
2023-04-02T01:39:35.351Z,92.00
2023-04-02T01:40:35.307Z,91.17
2023-04-02T01:41:35.281Z,92.72
2023-04-02T01:42:35.245Z,92.21
2023-04-02T01:43:35.218Z,92.72
2023-04-02T01:44:35.203Z,92.41
2023-04-02T01:45:35.550Z,91.48
2023-04-02T01:46:35.190Z,90.97
2023-04-02T01:47:35.132Z,91.58
2023-04-02T01:48:35.066Z,91.79
2023-04-02T01:49:35.039Z,92.31
2023-04-02T01:50:35.026Z,92.31
2023-04-02T01:51:34.994Z,90.76
2023-04-02T01:52:34.948Z,92.31
2023-04-02T01:53:34.919Z,89.73
2023-04-02T01:54:34.888Z,91.07
2023-04-02T01:55:35.136Z,89.11
2023-04-02T01:56:34.830Z,88.80
2023-04-02T01:57:34.832Z,89.83
2023-04-02T01:58:34.769Z,89.83
2023-04-02T01:59:34.762Z,90.25
2023-04-02T02:00:34.723Z,90.35
2023-04-02T02:01:34.680Z,90.45
2023-04-02T02:02:34.810Z,90.76
2023-04-02T02:03:34.628Z,90.55
2023-04-02T02:04:34.605Z,89.94
2023-04-02T02:05:34.748Z,89.22
2023-04-02T02:06:34.548Z,89.83
2023-04-02T02:07:34.501Z,90.35
2023-04-02T02:08:34.577Z,90.45
2023-04-02T02:09:34.452Z,90.25
2023-04-02T02:10:34.413Z,90.91
2023-04-02T02:11:34.383Z,91.11
2023-04-02T02:12:34.368Z,92.35
2023-04-02T02:13:34.324Z,92.14
2023-04-02T02:14:34.303Z,92.25
2023-04-02T02:15:34.523Z,92.25
2023-04-02T02:16:34.246Z,91.52
2023-04-02T02:17:34.231Z,91.63
2023-04-02T02:18:34.176Z,91.88
2023-04-02T02:19:34.151Z,92.50
2023-04-02T02:20:34.121Z,92.60
2023-04-02T02:21:34.101Z,92.64
2023-04-02T02:22:34.084Z,92.64
2023-04-02T02:23:34.031Z,93.47
2023-04-02T02:24:34.000Z,93.05
2023-04-02T02:25:34.389Z,93.37
2023-04-02T02:26:33.949Z,93.72
2023-04-02T02:27:33.912Z,95.06
2023-04-02T02:28:33.880Z,93.72
2023-04-02T02:29:33.851Z,93.47
2023-04-02T02:30:33.822Z,92.95
2023-04-02T02:31:33.848Z,92.13
2023-04-02T02:32:33.803Z,92.95
2023-04-02T02:33:33.735Z,92.85
2023-04-02T02:34:33.708Z,90.58
2023-04-02T02:35:33.903Z,89.29
2023-04-02T02:36:33.658Z,90.95
2023-04-02T02:37:33.631Z,90.89
2023-04-02T02:38:33.603Z,90.16
2023-04-02T02:39:33.553Z,90.33
2023-04-02T02:40:33.525Z,90.74
2023-04-02T02:41:33.492Z,90.53
2023-04-02T02:42:33.486Z,90.02
2023-04-02T02:43:33.435Z,89.25
2023-04-02T02:44:33.418Z,89.05
2023-04-02T02:45:33.591Z,88.84
2023-04-02T02:46:33.344Z,88.95
2023-04-02T02:47:33.355Z,88.32
2023-04-02T02:48:33.288Z,88.02
2023-04-02T02:49:33.252Z,88.64
2023-04-02T02:50:33.233Z,88.74
2023-04-02T02:51:33.195Z,88.43
2023-04-02T02:52:33.169Z,89.77
2023-04-02T02:53:33.129Z,88.95
2023-04-02T02:54:33.120Z,90.49
2023-04-02T02:55:33.414Z,90.19
2023-04-02T02:56:33.040Z,89.36
2023-04-02T02:57:33.136Z,90.19
2023-04-02T02:58:32.982Z,89.15
2023-04-02T02:59:32.956Z,88.02
2023-04-02T03:00:32.918Z,88.02
2023-04-02T03:01:32.916Z,89.15
2023-04-02T03:02:33.000Z,89.67
2023-04-02T03:03:33.066Z,88.32
2023-04-02T03:04:32.798Z,88.02
2023-04-02T03:05:32.767Z,87.92
2023-04-02T03:06:32.740Z,87.40
2023-04-02T03:07:32.709Z,87.05
2023-04-02T03:08:32.679Z,87.19
2023-04-02T03:09:32.646Z,88.84
2023-04-02T03:10:32.638Z,89.01
2023-04-02T03:11:32.589Z,87.98
2023-04-02T03:12:32.559Z,88.32
2023-04-02T03:13:32.530Z,88.80
2023-04-02T03:14:32.500Z,89.25
2023-04-02T03:15:32.552Z,88.74
2023-04-02T03:16:32.440Z,88.64
2023-04-02T03:17:32.446Z,89.25
2023-04-02T03:18:32.377Z,89.25
2023-04-02T03:19:32.358Z,89.25
2023-04-02T03:20:32.333Z,88.53
2023-04-02T03:21:32.290Z,88.74
2023-04-02T03:22:32.257Z,89.25
2023-04-02T03:23:32.227Z,88.37
2023-04-02T03:24:32.200Z,88.26
2023-04-02T03:25:32.205Z,88.26
2023-04-02T03:26:32.161Z,88.78
2023-04-02T03:27:32.114Z,89.29
2023-04-02T03:28:32.098Z,88.89
2023-04-02T03:29:32.068Z,88.26
2023-04-02T03:30:32.019Z,88.89
2023-04-02T03:31:31.995Z,89.23
2023-04-02T03:32:32.018Z,90.68
2023-04-02T03:33:31.935Z,89.92
2023-04-02T03:34:31.900Z,89.75
2023-04-02T03:35:31.886Z,90.47
2023-04-02T03:36:31.841Z,91.09
2023-04-02T03:37:31.812Z,91.20
2023-04-02T03:38:31.786Z,90.47
2023-04-02T03:39:31.751Z,89.44
2023-04-02T03:40:31.722Z,88.92
2023-04-02T03:41:31.692Z,89.86
2023-04-02T03:42:31.684Z,89.95
2023-04-02T03:43:31.630Z,89.03
2023-04-02T03:44:31.619Z,88.68
2023-04-02T03:45:31.571Z,89.29
2023-04-02T03:46:31.619Z,89.65
2023-04-02T03:47:31.530Z,89.29
2023-04-02T03:48:31.484Z,89.29
2023-04-02T03:49:31.472Z,89.71
2023-04-02T03:50:31.424Z,89.40
2023-04-02T03:51:31.390Z,90.43
2023-04-02T03:52:31.361Z,89.29
2023-04-02T03:53:31.330Z,89.40
2023-04-02T03:54:31.307Z,88.16
2023-04-02T03:55:31.272Z,88.16
2023-04-02T03:56:31.242Z,88.68
2023-04-02T03:57:31.346Z,88.78
2023-04-02T03:58:31.199Z,88.22
2023-04-02T03:59:31.149Z,88.12
2023-04-02T04:00:31.119Z,88.12
2023-04-02T04:01:31.089Z,88.32
2023-04-02T04:02:31.104Z,87.40
2023-04-02T04:03:31.029Z,88.12
2023-04-02T04:04:31.066Z,88.43
2023-04-02T04:05:30.976Z,87.92
2023-04-02T04:06:30.937Z,88.02
2023-04-02T04:07:30.921Z,88.12
2023-04-02T04:08:30.881Z,88.74
2023-04-02T04:09:30.849Z,89.25
2023-04-02T04:10:30.821Z,89.98
2023-04-02T04:11:30.830Z,89.87
2023-04-02T04:12:30.764Z,89.67
2023-04-02T04:13:30.733Z,90.80
2023-04-02T04:14:30.724Z,88.12
2023-04-02T04:15:30.676Z,86.26
2023-04-02T04:16:30.697Z,85.30
2023-04-02T04:17:30.624Z,86.02
2023-04-02T04:18:30.580Z,86.53
2023-04-02T04:19:30.546Z,85.71
2023-04-02T04:20:30.521Z,85.46
2023-04-02T04:21:30.492Z,85.19
2023-04-02T04:22:30.640Z,85.57
2023-04-02T04:23:30.492Z,85.81
2023-04-02T04:24:30.402Z,87.15
2023-04-02T04:25:30.442Z,87.42
2023-04-02T04:26:30.346Z,86.70
2023-04-02T04:27:30.311Z,86.32
2023-04-02T04:28:30.292Z,86.94
2023-04-02T04:29:30.251Z,86.74
2023-04-02T04:30:30.244Z,86.74
2023-04-02T04:31:30.229Z,85.15
2023-04-02T04:32:30.216Z,86.49
2023-04-02T04:33:30.133Z,86.74
2023-04-02T04:34:30.107Z,86.32
2023-04-02T04:35:30.108Z,87.01
2023-04-02T04:36:30.047Z,86.90
2023-04-02T04:37:30.014Z,87.26
2023-04-02T04:38:29.989Z,86.63
2023-04-02T04:39:29.972Z,87.56
2023-04-02T04:40:29.925Z,86.43
2023-04-02T04:41:29.895Z,85.91
2023-04-02T04:42:29.866Z,85.81
2023-04-02T04:43:29.836Z,85.09
2023-04-02T04:44:29.806Z,84.74
2023-04-02T04:45:29.779Z,85.71
2023-04-02T04:46:29.794Z,86.39
2023-04-02T04:47:29.732Z,84.94
2023-04-02T04:48:29.696Z,84.84
2023-04-02T04:49:29.656Z,83.95
2023-04-02T04:50:29.632Z,84.47
2023-04-02T04:51:29.601Z,84.53
2023-04-02T04:52:29.580Z,85.09
2023-04-02T04:53:29.556Z,86.70
2023-04-02T04:54:29.517Z,84.84
2023-04-02T04:55:29.483Z,84.53
2023-04-02T04:56:29.450Z,84.53
2023-04-02T04:57:29.455Z,84.43
2023-04-02T04:58:29.394Z,84.22
2023-04-02T04:59:29.361Z,85.81
2023-04-02T05:00:29.331Z,84.47
2023-04-02T05:01:29.386Z,85.71
2023-04-02T05:02:29.346Z,85.91
2023-04-02T05:03:29.241Z,86.02
2023-04-02T05:04:29.248Z,86.12
2023-04-02T05:05:29.181Z,86.74
2023-04-02T05:06:29.151Z,86.49
2023-04-02T05:07:29.137Z,85.39
2023-04-02T05:08:29.095Z,85.91
2023-04-02T05:09:29.059Z,85.09
2023-04-02T05:10:29.042Z,85.09
2023-04-02T05:11:29.000Z,84.67
2023-04-02T05:12:28.981Z,84.01
2023-04-02T05:13:28.939Z,84.43
2023-04-02T05:14:28.911Z,84.84
2023-04-02T05:15:28.879Z,85.67
2023-04-02T05:16:28.911Z,85.97
2023-04-02T05:17:28.859Z,86.29
2023-04-02T05:18:28.814Z,85.67
2023-04-02T05:19:28.760Z,85.77
2023-04-02T05:20:28.731Z,84.99
2023-04-02T05:21:28.699Z,84.88
2023-04-02T05:22:28.671Z,84.84
2023-04-02T05:23:28.648Z,86.08
2023-04-02T05:24:28.611Z,86.39
2023-04-02T05:25:28.594Z,85.67
2023-04-02T05:26:28.551Z,85.57
2023-04-02T05:27:28.524Z,87.01
2023-04-02T05:28:28.492Z,84.64
2023-04-02T05:29:28.460Z,85.39
2023-04-02T05:30:28.435Z,85.67
2023-04-02T05:31:28.423Z,85.77
2023-04-02T05:32:28.460Z,85.97
2023-04-02T05:33:28.343Z,86.90
2023-04-02T05:34:28.329Z,85.97
2023-04-02T05:35:28.281Z,85.97
2023-04-02T05:36:28.251Z,85.97
2023-04-02T05:37:28.220Z,85.67
2023-04-02T05:38:28.199Z,83.87
2023-04-02T05:39:28.185Z,85.36
2023-04-02T05:40:28.161Z,83.67
2023-04-02T05:41:28.111Z,85.36
2023-04-02T05:42:28.075Z,85.15
2023-04-02T05:43:28.046Z,83.91
2023-04-02T05:44:28.029Z,85.15
2023-04-02T05:45:27.989Z,85.46
2023-04-02T05:46:28.004Z,85.67
2023-04-02T05:47:28.005Z,84.80
2023-04-02T05:48:27.898Z,84.08
2023-04-02T05:49:27.865Z,83.91
2023-04-02T05:50:27.856Z,85.31
2023-04-02T05:51:27.809Z,86.04
2023-04-02T05:52:27.827Z,86.66
2023-04-02T05:53:27.762Z,86.24
2023-04-02T05:54:27.773Z,86.55
2023-04-02T05:55:27.767Z,84.29
2023-04-02T05:56:27.769Z,85.94
2023-04-02T05:57:41.710Z,83.15
2023-04-02T05:58:35.601Z,83.98
2023-04-02T05:59:27.572Z,83.77
2023-04-02T06:00:27.553Z,83.56
2023-04-02T06:01:27.517Z,84.29
2023-04-02T06:02:27.583Z,83.98
2023-04-02T06:03:27.681Z,83.47
2023-04-02T06:04:27.452Z,83.36
2023-04-02T06:05:27.398Z,85.01
2023-04-02T06:06:27.388Z,85.22
2023-04-02T06:07:27.335Z,86.24
2023-04-02T06:08:27.312Z,83.42
2023-04-02T06:09:27.276Z,83.32
2023-04-02T06:10:27.417Z,83.36
2023-04-02T06:11:27.240Z,83.77
2023-04-02T06:12:27.189Z,83.87
2023-04-02T06:13:27.175Z,84.25
2023-04-02T06:14:27.129Z,84.97
2023-04-02T06:15:27.112Z,85.07
2023-04-02T06:16:27.121Z,83.32
2023-04-02T06:17:27.052Z,83.63
2023-04-02T06:18:27.011Z,83.94
2023-04-02T06:19:26.991Z,83.84
2023-04-02T06:20:26.967Z,83.22
2023-04-02T06:21:26.929Z,83.42
2023-04-02T06:22:26.922Z,84.77
2023-04-02T06:23:26.865Z,82.09
2023-04-02T06:24:26.841Z,82.81
2023-04-02T06:25:26.807Z,82.50
2023-04-02T06:26:26.779Z,83.32
2023-04-02T06:27:26.754Z,84.42
2023-04-02T06:28:26.722Z,83.18
2023-04-02T06:29:26.691Z,83.49
2023-04-02T06:30:26.662Z,83.04
2023-04-02T06:31:26.678Z,83.49
2023-04-02T06:32:26.640Z,82.21
2023-04-02T06:33:26.576Z,81.91
2023-04-02T06:34:26.564Z,80.40
2023-04-02T06:35:26.521Z,82.05
2023-04-02T06:36:26.502Z,81.12
2023-04-02T06:37:26.458Z,81.88
2023-04-02T06:38:26.453Z,82.35
2023-04-02T06:39:26.403Z,81.84
2023-04-02T06:40:26.377Z,82.05
2023-04-02T06:41:26.347Z,83.39
2023-04-02T06:42:26.326Z,83.35
2023-04-02T06:43:26.302Z,83.55
2023-04-02T06:44:26.259Z,82.28
2023-04-02T06:45:26.239Z,83.72
2023-04-02T06:46:26.259Z,81.15
2023-04-02T06:47:26.199Z,80.39
2023-04-02T06:48:26.142Z,81.35
2023-04-02T06:49:26.122Z,80.16
2023-04-02T06:50:26.084Z,80.77
2023-04-02T06:51:26.059Z,80.57
2023-04-02T06:52:26.043Z,81.19
2023-04-02T06:53:26.002Z,81.91
2023-04-02T06:54:25.991Z,82.53
2023-04-02T06:55:26.059Z,79.95
2023-04-02T06:56:25.914Z,81.19
2023-04-02T06:57:25.932Z,80.67
2023-04-02T06:58:25.860Z,81.19
2023-04-02T06:59:25.838Z,83.11
2023-04-02T07:00:25.860Z,81.39
2023-04-02T07:01:25.834Z,80.74
2023-04-02T07:02:25.754Z,80.12
2023-04-02T07:03:25.712Z,81.25
2023-04-02T07:04:25.702Z,82.45
2023-04-02T07:05:25.657Z,81.59
2023-04-02T07:06:25.632Z,79.12
2023-04-02T07:07:25.606Z,79.43
2023-04-02T07:08:25.578Z,79.22
2023-04-02T07:09:25.549Z,79.22
2023-04-02T07:10:25.578Z,78.64
2023-04-02T07:11:25.478Z,79.77
2023-04-02T07:12:25.452Z,78.89
2023-04-02T07:13:25.427Z,79.98
2023-04-02T07:14:25.394Z,79.30
2023-04-02T07:15:25.366Z,79.19
2023-04-02T07:16:25.478Z,80.74
2023-04-02T07:17:25.317Z,80.39
2023-04-02T07:18:25.280Z,80.19
2023-04-02T07:19:25.253Z,79.57
2023-04-02T07:20:25.221Z,79.57
2023-04-02T07:21:25.194Z,81.69
2023-04-02T07:22:25.163Z,79.02
2023-04-02T07:23:25.137Z,81.18
2023-04-02T07:24:25.106Z,79.22
2023-04-02T07:25:25.076Z,78.33
2023-04-02T07:26:25.101Z,79.88
2023-04-02T07:27:25.024Z,79.57
2023-04-02T07:28:25.024Z,79.30
2023-04-02T07:29:24.966Z,79.88
2023-04-02T07:30:24.946Z,80.05
2023-04-02T07:31:24.927Z,78.40
2023-04-02T07:32:24.878Z,79.43
2023-04-02T07:33:24.869Z,80.52
2023-04-02T07:34:24.825Z,80.01
2023-04-02T07:35:24.798Z,77.34
2023-04-02T07:36:24.802Z,79.87
2023-04-02T07:37:24.737Z,79.63
2023-04-02T07:38:24.722Z,78.39
2023-04-02T07:39:24.684Z,79.18
2023-04-02T07:40:24.656Z,75.08
2023-04-02T07:41:24.629Z,75.28
2023-04-02T07:42:24.614Z,76.31
2023-04-02T07:43:24.579Z,76.37
2023-04-02T07:44:24.539Z,74.49
2023-04-02T07:45:24.517Z,75.35
2023-04-02T07:46:24.528Z,76.48
2023-04-02T07:47:24.461Z,79.05
2023-04-02T07:48:24.430Z,76.34
2023-04-02T07:49:24.403Z,76.28
2023-04-02T07:50:24.374Z,79.73
2023-04-02T07:51:24.415Z,76.31
2023-04-02T07:52:24.320Z,73.91
2023-04-02T07:53:24.289Z,76.14
2023-04-02T07:54:24.261Z,75.83
2023-04-02T07:55:24.240Z,75.62
2023-04-02T07:56:24.231Z,76.14
2023-04-02T07:57:24.250Z,75.69
2023-04-02T07:58:24.170Z,76.20
2023-04-02T07:59:24.124Z,74.77
2023-04-02T08:00:24.097Z,75.49
2023-04-02T08:01:24.076Z,75.08
2023-04-02T08:02:24.104Z,75.28
2023-04-02T08:03:24.171Z,75.73
2023-04-02T08:04:24.030Z,76.14
2023-04-02T08:05:23.966Z,75.56
2023-04-02T08:06:23.934Z,76.75
2023-04-02T08:07:23.937Z,76.07
2023-04-02T08:08:23.878Z,76.48
2023-04-02T08:09:23.849Z,77.17
2023-04-02T08:10:23.832Z,77.17
2023-04-02T08:11:23.797Z,77.78
2023-04-02T08:12:23.767Z,77.64
2023-04-02T08:13:23.740Z,77.84
2023-04-02T08:14:23.728Z,76.45
2023-04-02T08:15:23.686Z,77.40
2023-04-02T08:16:23.668Z,77.17
2023-04-02T08:17:23.679Z,77.06
2023-04-02T08:18:23.638Z,76.96
2023-04-02T08:19:23.578Z,77.03
2023-04-02T08:20:23.549Z,76.41
2023-04-02T08:21:23.528Z,75.73
2023-04-02T08:22:23.491Z,76.24
2023-04-02T08:23:23.466Z,78.50
2023-04-02T08:24:23.438Z,77.64
2023-04-02T08:25:23.415Z,77.17
2023-04-02T08:26:23.393Z,77.95
2023-04-02T08:27:23.373Z,76.51
2023-04-02T08:28:23.328Z,77.88
2023-04-02T08:29:23.303Z,78.70
2023-04-02T08:30:23.296Z,77.54
2023-04-02T08:31:23.353Z,77.13
2023-04-02T08:32:23.225Z,77.84
2023-04-02T08:33:23.191Z,76.24
2023-04-02T08:34:23.162Z,76.34
2023-04-02T08:35:23.136Z,76.14
2023-04-02T08:36:23.138Z,76.45
2023-04-02T08:37:23.085Z,75.73
2023-04-02T08:38:23.055Z,77.98
2023-04-02T08:39:23.034Z,75.62
2023-04-02T08:40:23.008Z,76.24
2023-04-02T08:41:22.969Z,76.45
2023-04-02T08:42:22.950Z,78.56
2023-04-02T08:43:23.662Z,76.68
2023-04-02T08:44:22.889Z,76.89
2023-04-02T08:45:24.918Z,77.77
2023-04-02T08:46:22.894Z,75.07
2023-04-02T08:47:22.844Z,73.54
2023-04-02T08:48:22.776Z,73.47
2023-04-02T08:49:22.749Z,74.49
2023-04-02T08:50:22.724Z,73.88
2023-04-02T08:51:22.711Z,74.22
2023-04-02T08:52:22.671Z,75.28
2023-04-02T08:53:22.651Z,75.66
2023-04-02T08:54:22.612Z,74.43
2023-04-02T08:55:22.583Z,74.43
2023-04-02T08:56:22.569Z,74.32
2023-04-02T08:57:22.601Z,74.46
2023-04-02T08:58:22.501Z,74.46
2023-04-02T08:59:22.476Z,76.41
2023-04-02T09:00:22.447Z,75.69
2023-04-02T09:01:22.434Z,75.76
2023-04-02T09:02:22.456Z,74.70
2023-04-02T09:03:22.367Z,73.50
2023-04-02T09:04:22.361Z,73.61
2023-04-02T09:05:22.312Z,74.12
2023-04-02T09:06:22.283Z,75.11
2023-04-02T09:07:22.253Z,74.60
2023-04-02T09:08:22.220Z,74.39
2023-04-02T09:09:22.196Z,74.60
2023-04-02T09:10:22.167Z,74.39
2023-04-02T09:11:22.156Z,74.80
2023-04-02T09:12:22.115Z,72.55
2023-04-02T09:13:22.085Z,73.30
2023-04-02T09:14:22.058Z,74.26
2023-04-02T09:15:22.030Z,75.04
2023-04-02T09:16:22.043Z,75.18
2023-04-02T09:17:21.975Z,75.56
2023-04-02T09:18:21.999Z,75.11
2023-04-02T09:19:21.964Z,74.60
2023-04-02T09:20:21.903Z,73.44
2023-04-02T09:21:21.886Z,71.69
2023-04-02T09:22:21.855Z,73.06
2023-04-02T09:23:21.811Z,73.74
2023-04-02T09:24:21.804Z,74.43
2023-04-02T09:25:21.764Z,74.49
2023-04-02T09:26:21.732Z,72.14
2023-04-02T09:27:21.713Z,71.80
2023-04-02T09:28:21.686Z,72.65
2023-04-02T09:29:21.656Z,74.08
2023-04-02T09:30:21.634Z,75.38
2023-04-02T09:31:21.618Z,74.02
2023-04-02T09:32:21.570Z,72.89
2023-04-02T09:33:21.545Z,73.16
2023-04-02T09:34:21.534Z,71.83
2023-04-02T09:35:26.514Z,70.64
2023-04-02T09:36:21.491Z,72.07
2023-04-02T09:37:21.434Z,72.17
2023-04-02T09:38:21.409Z,74.29
2023-04-02T09:39:21.387Z,71.25
2023-04-02T09:40:21.353Z,73.44
2023-04-02T09:41:21.327Z,72.92
2023-04-02T09:42:21.299Z,75.59
2023-04-02T09:43:21.287Z,72.72
2023-04-02T09:44:21.271Z,73.03
2023-04-02T09:45:21.233Z,71.18
2023-04-02T09:46:21.254Z,72.82
2023-04-02T09:47:21.176Z,72.17
2023-04-02T09:48:21.138Z,71.56
2023-04-02T09:49:21.111Z,71.56
2023-04-02T09:50:21.106Z,69.95
2023-04-02T09:51:21.059Z,71.52
2023-04-02T09:52:21.053Z,71.52
2023-04-02T09:53:21.003Z,69.47
2023-04-02T09:54:20.976Z,71.42
2023-04-02T09:55:20.952Z,71.11
2023-04-02T09:56:20.921Z,72.03
2023-04-02T09:57:20.929Z,70.36
2023-04-02T09:58:20.865Z,71.52
2023-04-02T09:59:20.840Z,73.44
2023-04-02T10:00:31.611Z,72.00
2023-04-02T10:01:20.843Z,70.06
2023-04-02T10:02:20.765Z,70.77
2023-04-02T10:03:20.733Z,70.67
2023-04-02T10:04:20.738Z,69.65
2023-04-02T10:05:30.164Z,71.18
2023-04-02T10:06:20.667Z,69.13
2023-04-02T10:07:20.635Z,70.94
2023-04-02T10:08:20.598Z,70.23
2023-04-02T10:09:20.571Z,69.41
2023-04-02T10:10:20.542Z,69.65
2023-04-02T10:11:20.514Z,69.55
2023-04-02T10:12:20.488Z,70.34
2023-04-02T10:13:20.465Z,70.30
2023-04-02T10:14:20.433Z,68.16
2023-04-02T10:15:20.402Z,70.44
2023-04-02T10:16:20.398Z,67.51
2023-04-02T10:17:20.399Z,70.23
2023-04-02T10:18:20.322Z,67.89
2023-04-02T10:19:20.298Z,69.42
2023-04-02T10:20:20.271Z,69.38
2023-04-02T10:21:20.244Z,67.04
2023-04-02T10:22:20.238Z,65.57
2023-04-02T10:23:20.196Z,65.87
2023-04-02T10:24:20.166Z,68.05
2023-04-02T10:25:20.142Z,69.07
2023-04-02T10:26:20.118Z,69.11
2023-04-02T10:27:20.091Z,68.46
2023-04-02T10:28:20.067Z,67.54
2023-04-02T10:29:20.034Z,67.07
2023-04-02T10:30:20.009Z,67.24
2023-04-02T10:31:20.018Z,66.14
2023-04-02T10:32:19.971Z,67.40
2023-04-02T10:33:19.936Z,68.63
2023-04-02T10:34:19.905Z,69.31
2023-04-02T10:35:19.879Z,67.10
2023-04-02T10:36:19.852Z,68.52
2023-04-02T10:37:19.830Z,69.14
2023-04-02T10:38:19.830Z,68.12
2023-04-02T10:39:19.775Z,70.16
2023-04-02T10:40:19.766Z,69.24
2023-04-02T10:41:19.728Z,70.43
2023-04-02T10:42:19.696Z,68.57
2023-04-02T10:43:19.671Z,68.57
2023-04-02T10:44:20.748Z,67.47
2023-04-02T10:45:19.620Z,66.89
2023-04-02T10:46:19.618Z,67.10
2023-04-02T10:47:19.577Z,66.89
2023-04-02T10:48:19.542Z,67.50
2023-04-02T10:49:19.536Z,67.40
2023-04-02T10:50:19.486Z,67.91
2023-04-02T10:51:19.462Z,67.19
2023-04-02T10:52:19.433Z,66.38
2023-04-02T10:53:19.413Z,65.77
2023-04-02T10:54:19.402Z,65.36
2023-04-02T10:55:19.357Z,65.66
2023-04-02T10:56:19.329Z,65.12
2023-04-02T10:57:19.353Z,64.43
2023-04-02T10:58:19.276Z,65.63
2023-04-02T10:59:19.250Z,64.71
2023-04-02T11:00:19.253Z,65.50
2023-04-02T11:01:19.220Z,66.31
2023-04-02T11:02:19.200Z,66.18
2023-04-02T11:03:19.265Z,65.06
2023-04-02T11:04:19.125Z,63.73
2023-04-02T11:05:19.088Z,64.65
2023-04-02T11:06:19.079Z,66.08
2023-04-02T11:07:19.036Z,63.22
2023-04-02T11:08:19.032Z,65.37
2023-04-02T11:09:19.000Z,63.22
2023-04-02T11:10:18.981Z,63.45
2023-04-02T11:11:18.933Z,63.59
2023-04-02T11:12:18.905Z,64.78
2023-04-02T11:13:18.877Z,66.08
2023-04-02T11:14:18.852Z,64.04
2023-04-02T11:15:18.827Z,64.45
2023-04-02T11:16:18.831Z,63.40
2023-04-02T11:17:18.772Z,63.47
2023-04-02T11:18:18.746Z,61.80
2023-04-02T11:19:18.733Z,61.19
2023-04-02T11:20:18.702Z,60.99
2023-04-02T11:21:18.671Z,62.62
2023-04-02T11:22:18.642Z,63.44
2023-04-02T11:23:18.615Z,60.53
2023-04-02T11:24:18.590Z,62.78
2023-04-02T11:25:18.560Z,63.73
2023-04-02T11:26:18.558Z,64.45
2023-04-02T11:27:18.509Z,66.42
2023-04-02T11:28:18.484Z,65.17
2023-04-02T11:29:18.457Z,63.92
2023-04-02T11:30:18.440Z,65.14
2023-04-02T11:31:18.442Z,63.18
2023-04-02T11:32:18.380Z,65.19
2023-04-02T11:33:20.847Z,61.21
2023-04-02T11:34:18.328Z,63.32
2023-04-02T11:35:18.305Z,62.40
2023-04-02T11:36:18.325Z,61.22
2023-04-02T11:37:18.251Z,59.91
2023-04-02T11:38:18.228Z,56.16
2023-04-02T11:39:18.201Z,56.81
2023-04-02T11:40:18.197Z,59.58
2023-04-02T11:41:18.149Z,59.00
2023-04-02T11:42:18.162Z,59.68
2023-04-02T11:43:18.098Z,59.81
2023-04-02T11:44:18.073Z,61.41
2023-04-02T11:45:20.186Z,60.50
2023-04-02T11:46:18.049Z,59.07
2023-04-02T11:47:18.000Z,61.11
2023-04-02T11:48:17.972Z,60.76
2023-04-02T11:49:17.947Z,63.48
2023-04-02T11:50:17.921Z,61.47
2023-04-02T11:51:20.744Z,65.07
2023-04-02T11:52:17.873Z,65.92
2023-04-02T11:53:17.845Z,65.78
2023-04-02T11:54:17.820Z,66.02
2023-04-02T11:55:17.795Z,66.77
2023-04-02T11:56:17.771Z,68.09
2023-04-02T11:57:19.022Z,68.33
2023-04-02T11:58:17.741Z,68.02
2023-04-02T11:59:17.689Z,65.88
2023-04-02T12:00:18.269Z,66.66
2023-04-02T12:01:17.638Z,65.98
2023-04-02T12:02:17.674Z,66.08
2023-04-02T12:03:17.615Z,66.39
2023-04-02T12:04:17.582Z,67.51
2023-04-02T12:05:17.636Z,68.30
2023-04-02T12:06:17.513Z,66.86
2023-04-02T12:07:17.498Z,67.79
2023-04-02T12:08:17.473Z,66.77
2023-04-02T12:09:17.434Z,66.39
2023-04-02T12:10:17.452Z,67.65
2023-04-02T12:11:17.381Z,67.65
2023-04-02T12:12:17.368Z,67.03
2023-04-02T12:13:17.327Z,67.44
2023-04-02T12:14:17.322Z,66.39
2023-04-02T12:15:17.275Z,67.10
2023-04-02T12:16:17.278Z,67.03
2023-04-02T12:17:17.253Z,67.75
2023-04-02T12:18:17.206Z,68.36
2023-04-02T12:19:17.168Z,67.18
2023-04-02T12:20:17.143Z,65.16
2023-04-02T12:21:17.116Z,65.26
2023-04-02T12:22:17.090Z,65.47
2023-04-02T12:23:17.083Z,64.89
2023-04-02T12:24:17.045Z,65.91
2023-04-02T12:25:17.011Z,66.21
2023-04-02T12:26:16.989Z,65.88
2023-04-02T12:27:16.979Z,66.83
2023-04-02T12:28:16.934Z,66.01
2023-04-02T12:29:16.903Z,67.24
2023-04-02T12:30:16.900Z,66.72
2023-04-02T12:31:16.925Z,67.07
2023-04-02T12:32:16.829Z,67.13
2023-04-02T12:33:16.799Z,67.44
2023-04-02T12:34:16.772Z,67.61
2023-04-02T12:35:16.747Z,67.10
2023-04-02T12:36:16.804Z,67.03
2023-04-02T12:37:16.693Z,67.34
2023-04-02T12:38:16.670Z,67.44
2023-04-02T12:39:16.662Z,67.30
2023-04-02T12:40:16.625Z,67.92
2023-04-02T12:41:16.594Z,66.39
2023-04-02T12:42:16.562Z,66.52
2023-04-02T12:43:16.532Z,67.03
2023-04-02T12:44:16.510Z,67.34
2023-04-02T12:45:16.481Z,68.23
2023-04-02T12:46:16.555Z,65.91
2023-04-02T12:47:16.432Z,64.99
2023-04-02T12:48:16.404Z,67.00
2023-04-02T12:49:16.376Z,68.94
2023-04-02T12:50:16.347Z,68.53
2023-04-02T12:51:17.552Z,67.38
2023-04-02T12:52:16.312Z,63.60